LFKC/CLY METAR and TAF weather

Enter ICAO airport designator
Station Type Date Time Source
LFKC METAR 2019/08/25 20:00 UTC NOAA

LFKC 252000Z AUTO 17006KT CAVOK 23/19 Q1017 NOSIG


Station Type Date Time Source
LFKC Decoded METAR 2019/08/25 20:00 UTC NOAA

Station name not available
Aug 25, 2019 - 04:00 PM EDT / 2019.08.25 2000 UTC
Wind: from the S (170 degrees) at 7 MPH (6 KT):0
Visibility: greater than 7 mile(s):0
Temperature: 73 F (23 C)
Dew Point: 66 F (19 C)
Relative Humidity: 78%
Pressure (altimeter): 30.03 in. Hg (1017 hPa)
ob: LFKC 252000Z AUTO 17006KT CAVOK 23/19 Q1017 NOSIG
cycle: 20

Station Type Date Time Source
LFKC TAF 2019/08/25 15:42 UTC NOAA

TAF LFKC 251400Z 2515/2615 35010KT 9999 FEW040 TX29/2612Z TN19/2603Z
TEMPO 2515/2516 FEW035CB
BECMG 2518/2520 18004KT
BECMG 2607/2609 35010KT
TEMPO 2611/2615 FEW035CB BKN100

Example: see airport list